createdAt,value
2022-10-06T00:02:08.870Z,100.00
2022-10-06T00:04:38.662Z,100.00
2022-10-06T00:07:08.404Z,100.00
2022-10-06T00:09:38.081Z,100.00
2022-10-06T00:12:09.150Z,100.00
2022-10-06T00:14:41.484Z,100.00
2022-10-06T00:17:11.222Z,100.00
2022-10-06T00:19:40.918Z,100.00
2022-10-06T00:22:10.670Z,100.00
2022-10-06T00:24:40.389Z,100.00
2022-10-06T00:27:10.114Z,100.00
2022-10-06T00:29:42.548Z,100.00
2022-10-06T00:32:12.749Z,100.00
2022-10-06T00:34:44.217Z,100.00
2022-10-06T00:37:13.978Z,100.00
2022-10-06T00:39:43.970Z,100.00
2022-10-06T00:42:24.861Z,100.00
2022-10-06T00:44:57.822Z,100.00
2022-10-06T00:47:29.916Z,100.00
2022-10-06T00:50:00.125Z,100.00
2022-10-06T00:52:33.353Z,100.00
2022-10-06T00:55:04.313Z,100.00
2022-10-06T00:57:34.092Z,100.00
2022-10-06T01:00:07.825Z,100.00
2022-10-06T01:02:42.838Z,100.00
2022-10-06T01:05:18.778Z,100.00
2022-10-06T01:07:48.498Z,100.00
2022-10-06T01:10:18.260Z,100.00
2022-10-06T01:12:48.271Z,100.00
2022-10-06T01:15:21.642Z,100.00
2022-10-06T01:17:55.941Z,100.00
2022-10-06T01:20:26.343Z,100.00
2022-10-06T01:23:05.246Z,100.00
2022-10-06T01:25:37.262Z,100.00
2022-10-06T01:28:09.452Z,100.00
2022-10-06T01:30:44.411Z,100.00
2022-10-06T01:33:14.591Z,100.00
2022-10-06T01:35:44.442Z,100.00
2022-10-06T01:38:17.119Z,100.00
2022-10-06T01:40:47.191Z,100.00
2022-10-06T01:43:17.335Z,100.00
2022-10-06T01:45:47.674Z,100.00
2022-10-06T01:48:17.379Z,100.00
2022-10-06T01:50:47.104Z,100.00
2022-10-06T01:53:19.631Z,100.00
2022-10-06T01:55:49.396Z,100.00
2022-10-06T01:58:19.416Z,100.00
2022-10-06T02:00:50.994Z,100.00
2022-10-06T02:03:20.844Z,100.00
2022-10-06T02:05:50.664Z,100.00
2022-10-06T02:08:22.970Z,100.00
2022-10-06T02:10:52.661Z,100.00
2022-10-06T02:13:23.581Z,100.00
2022-10-06T02:15:53.678Z,100.00
2022-10-06T02:18:23.433Z,100.00
2022-10-06T02:20:53.231Z,100.00
2022-10-06T02:23:25.572Z,100.00
2022-10-06T02:26:01.327Z,100.00
2022-10-06T02:28:31.800Z,100.00
2022-10-06T02:31:04.188Z,100.00
2022-10-06T02:33:34.502Z,100.00
2022-10-06T02:36:04.694Z,100.00
2022-10-06T02:38:37.262Z,100.00
2022-10-06T02:41:07.423Z,100.00
2022-10-06T02:43:37.907Z,100.00
2022-10-06T02:46:10.556Z,100.00
2022-10-06T02:48:40.830Z,100.00
2022-10-06T02:51:13.729Z,100.00
2022-10-06T02:53:46.911Z,100.00
2022-10-06T02:56:19.064Z,100.00
2022-10-06T02:58:50.180Z,100.00
2022-10-06T03:01:22.478Z,100.00
2022-10-06T03:03:52.260Z,100.00
2022-10-06T03:06:26.597Z,100.00
2022-10-06T03:09:01.130Z,100.00
2022-10-06T03:11:32.764Z,100.00
2022-10-06T03:14:02.752Z,100.00
2022-10-06T03:16:34.729Z,100.00
2022-10-06T03:19:05.260Z,100.00
2022-10-06T03:21:38.400Z,100.00
2022-10-06T03:24:11.006Z,100.00
2022-10-06T03:26:43.006Z,100.00
2022-10-06T03:29:13.608Z,100.00
2022-10-06T03:31:43.678Z,100.00
2022-10-06T03:34:13.650Z,100.00
2022-10-06T03:36:44.242Z,100.00
2022-10-06T03:39:16.577Z,100.00
2022-10-06T03:41:46.434Z,100.00
2022-10-06T03:44:16.460Z,100.00
2022-10-06T03:46:46.327Z,100.00
2022-10-06T03:49:16.095Z,100.00
2022-10-06T03:51:46.423Z,100.00
2022-10-06T03:54:18.744Z,100.00
2022-10-06T03:56:49.306Z,100.00
2022-10-06T03:59:19.714Z,100.00
2022-10-06T04:01:50.864Z,100.00
2022-10-06T04:04:20.600Z,100.00
2022-10-06T04:06:50.359Z,100.00
2022-10-06T04:09:22.708Z,100.00
2022-10-06T04:11:52.694Z,100.00
2022-10-06T04:14:22.449Z,100.00
2022-10-06T04:16:53.537Z,100.00
2022-10-06T04:19:23.257Z,100.00
2022-10-06T04:21:52.980Z,100.00
2022-10-06T04:24:25.548Z,100.00
2022-10-06T04:27:15.390Z,100.00
2022-10-06T04:29:45.683Z,100.00
2022-10-06T04:32:16.012Z,100.00
2022-10-06T04:34:45.738Z,100.00
2022-10-06T04:37:15.516Z,100.00
2022-10-06T04:39:48.181Z,100.00
2022-10-06T04:42:17.941Z,100.00
2022-10-06T04:44:47.651Z,100.00
2022-10-06T04:47:17.410Z,100.00
2022-10-06T04:49:47.123Z,100.00
2022-10-06T04:52:16.879Z,100.00
2022-10-06T04:54:49.237Z,100.00
2022-10-06T04:57:18.969Z,100.00
2022-10-06T05:00:06.793Z,100.00
2022-10-06T05:02:39.186Z,100.00
2022-10-06T05:05:09.941Z,100.00
2022-10-06T05:07:39.704Z,100.00
2022-10-06T05:10:12.346Z,100.00
2022-10-06T05:12:42.113Z,100.00
2022-10-06T05:15:13.077Z,100.00
2022-10-06T05:17:42.816Z,100.00
2022-10-06T05:20:13.853Z,100.00
2022-10-06T05:22:43.577Z,100.00
2022-10-06T05:25:16.018Z,100.00
2022-10-06T05:27:46.161Z,100.00
2022-10-06T05:30:16.036Z,100.00
2022-10-06T05:32:50.585Z,100.00
2022-10-06T05:35:21.447Z,100.00
2022-10-06T05:37:51.172Z,100.00
2022-10-06T05:40:23.918Z,100.00
2022-10-06T05:42:53.668Z,100.00
2022-10-06T05:45:23.405Z,100.00
2022-10-06T05:47:53.254Z,100.00
2022-10-06T05:50:23.751Z,100.00
2022-10-06T05:52:53.470Z,100.00
2022-10-06T05:55:26.501Z,100.00
2022-10-06T05:57:57.747Z,100.00
2022-10-06T06:00:27.743Z,100.00
2022-10-06T06:02:57.562Z,100.00
2022-10-06T06:05:27.326Z,100.00
2022-10-06T06:07:57.073Z,100.00
2022-10-06T06:10:29.413Z,100.00
2022-10-06T06:12:59.182Z,100.00
2022-10-06T06:15:41.314Z,100.00
2022-10-06T06:18:11.073Z,100.00
2022-10-06T06:20:40.779Z,100.00
2022-10-06T06:23:10.528Z,100.00
2022-10-06T06:25:44.395Z,100.00
2022-10-06T06:28:14.205Z,100.00
2022-10-06T06:30:44.120Z,100.00
2022-10-06T06:33:13.876Z,100.00
2022-10-06T06:35:44.185Z,100.00
2022-10-06T06:38:14.191Z,100.00
2022-10-06T06:40:46.627Z,100.00
2022-10-06T06:43:16.325Z,100.00
2022-10-06T06:45:46.159Z,100.00
2022-10-06T06:48:18.435Z,100.00
2022-10-06T06:50:48.793Z,100.00
2022-10-06T06:53:18.522Z,100.00
2022-10-06T06:55:54.839Z,100.00
2022-10-06T06:58:25.098Z,100.00
2022-10-06T07:00:55.116Z,100.00
2022-10-06T07:03:55.636Z,100.00
2022-10-06T07:06:17.348Z,100.00
2022-10-06T07:08:49.632Z,100.00
2022-10-06T07:11:23.599Z,100.00
2022-10-06T07:13:55.736Z,100.00
2022-10-06T07:16:38.931Z,100.00
2022-10-06T07:19:24.787Z,100.00
2022-10-06T07:22:08.616Z,100.00
2022-10-06T07:24:50.765Z,100.00
2022-10-06T07:27:23.208Z,100.00
2022-10-06T07:29:56.014Z,100.00
2022-10-06T07:32:27.877Z,100.00
2022-10-06T07:34:58.433Z,100.00
2022-10-06T07:37:28.979Z,100.00
2022-10-06T07:39:59.062Z,100.00
2022-10-06T07:42:31.525Z,100.00
2022-10-06T07:45:13.675Z,100.00
2022-10-06T07:47:43.480Z,100.00
2022-10-06T07:50:13.306Z,100.00
2022-10-06T07:52:45.238Z,100.00
2022-10-06T07:55:17.861Z,100.00
2022-10-06T07:57:51.597Z,100.00
2022-10-06T08:00:23.299Z,100.00
2022-10-06T08:03:07.581Z,100.00
2022-10-06T08:05:41.941Z,100.00
2022-10-06T08:08:11.811Z,100.00
2022-10-06T08:10:41.820Z,100.00
2022-10-06T08:13:14.277Z,100.00
2022-10-06T08:15:44.113Z,100.00
2022-10-06T08:18:33.642Z,100.00
2022-10-06T08:21:03.776Z,100.00
2022-10-06T08:23:40.725Z,100.00
2022-10-06T08:26:11.054Z,100.00
2022-10-06T08:29:18.488Z,100.00
2022-10-06T08:31:38.630Z,100.00
2022-10-06T08:34:12.010Z,100.00
2022-10-06T08:36:56.958Z,100.00
2022-10-06T08:39:34.050Z,100.00
2022-10-06T08:42:04.529Z,100.00
2022-10-06T08:44:43.060Z,100.00
2022-10-06T08:47:19.191Z,100.00
2022-10-06T08:49:51.243Z,100.00
2022-10-06T08:52:34.530Z,100.00
2022-10-06T08:55:18.309Z,100.00
2022-10-06T08:58:13.539Z,100.00
2022-10-06T09:00:46.055Z,100.00
2022-10-06T09:03:23.214Z,100.00
2022-10-06T09:05:55.969Z,100.00
2022-10-06T09:08:41.002Z,100.00
2022-10-06T09:11:25.232Z,100.00
2022-10-06T09:14:00.123Z,99.98
2022-10-06T09:16:42.296Z,99.63
2022-10-06T09:19:17.781Z,99.14
2022-10-06T09:21:51.849Z,98.69
2022-10-06T09:24:32.888Z,98.52
2022-10-06T09:27:03.602Z,98.06
2022-10-06T09:29:33.987Z,97.82
2022-10-06T09:32:06.935Z,97.41
2022-10-06T09:34:42.306Z,97.34
2022-10-06T09:37:13.937Z,96.94
2022-10-06T09:39:45.349Z,96.81
2022-10-06T09:42:18.781Z,96.69
2022-10-06T09:45:01.502Z,96.31
2022-10-06T09:47:45.430Z,95.97
2022-10-06T09:50:22.020Z,95.80
2022-10-06T09:53:22.112Z,95.65
2022-10-06T09:55:55.456Z,95.25
2022-10-06T09:58:31.597Z,94.97
2022-10-06T10:01:03.971Z,94.77
2022-10-06T10:04:18.702Z,94.49
2022-10-06T10:06:43.587Z,94.07
2022-10-06T10:09:22.929Z,93.78
2022-10-06T10:12:33.878Z,93.29
2022-10-06T10:15:06.397Z,93.10
2022-10-06T10:17:42.162Z,92.59
2022-10-06T10:20:34.393Z,92.30
2022-10-06T10:23:08.273Z,92.07
2022-10-06T10:26:08.268Z,91.74
2022-10-06T10:29:12.400Z,91.18
2022-10-06T10:31:56.419Z,91.11
2022-10-06T10:34:45.154Z,90.73
2022-10-06T10:37:22.077Z,90.52
2022-10-06T10:39:57.745Z,90.44
2022-10-06T10:42:33.234Z,90.40
2022-10-06T10:45:04.577Z,90.46
2022-10-06T10:47:39.500Z,90.36
2022-10-06T10:50:22.539Z,90.30
2022-10-06T10:52:58.959Z,90.30
2022-10-06T10:55:32.699Z,90.21
2022-10-06T10:58:07.515Z,90.07
2022-10-06T11:00:44.314Z,89.86
2022-10-06T11:03:14.143Z,89.99
2022-10-06T11:06:07.436Z,89.80
2022-10-06T11:08:50.980Z,89.47
2022-10-06T11:11:30.007Z,89.13
2022-10-06T11:14:04.439Z,88.73
2022-10-06T11:16:44.454Z,88.44
2022-10-06T11:19:24.641Z,88.49
2022-10-06T11:22:01.969Z,88.06
2022-10-06T11:24:44.857Z,87.75
2022-10-06T11:27:26.686Z,87.48
2022-10-06T11:30:08.571Z,87.18
2022-10-06T11:32:50.201Z,86.88
2022-10-06T11:35:24.010Z,86.39
2022-10-06T11:38:01.094Z,86.13
2022-10-06T11:40:44.169Z,85.55
2022-10-06T11:43:23.229Z,85.24
2022-10-06T11:46:04.151Z,85.02
2022-10-06T11:48:35.471Z,84.64
2022-10-06T11:51:32.553Z,84.27
2022-10-06T11:54:02.574Z,83.99
2022-10-06T11:56:44.071Z,83.44
2022-10-06T11:59:31.483Z,83.09
2022-10-06T12:02:04.006Z,82.93
2022-10-06T12:04:33.847Z,82.77
2022-10-06T12:07:05.448Z,82.37
2022-10-06T12:09:52.332Z,82.43
2022-10-06T12:13:13.862Z,82.17
2022-10-06T12:19:16.988Z,82.10
2022-10-06T12:21:57.452Z,81.84
2022-10-06T12:24:41.501Z,81.72
2022-10-06T12:27:33.383Z,81.86
2022-10-06T12:30:09.372Z,81.75
2022-10-06T12:32:55.081Z,82.04
2022-10-06T12:35:33.038Z,81.93
2022-10-06T12:38:05.557Z,81.80
2022-10-06T12:40:55.720Z,81.68
2022-10-06T12:43:55.579Z,81.38
2022-10-06T12:46:49.531Z,81.17
2022-10-06T12:49:49.120Z,81.02
2022-10-06T12:52:35.467Z,80.87
2022-10-06T12:55:32.429Z,80.60
2022-10-06T12:58:02.410Z,80.49
2022-10-06T13:00:37.399Z,80.35
2022-10-06T13:03:18.238Z,80.18
2022-10-06T13:05:53.684Z,80.16
2022-10-06T13:08:29.193Z,79.91
2022-10-06T13:11:14.577Z,79.78
2022-10-06T13:13:51.179Z,79.67
2022-10-06T13:16:22.942Z,79.49
2022-10-06T13:18:58.133Z,79.53
2022-10-06T13:21:29.123Z,79.43
2022-10-06T13:23:59.676Z,79.33
2022-10-06T13:26:34.778Z,79.44
2022-10-06T13:29:05.455Z,79.30
2022-10-06T13:31:38.209Z,79.48
2022-10-06T13:34:14.809Z,79.33
2022-10-06T13:36:46.959Z,79.09
2022-10-06T13:39:18.847Z,78.95
2022-10-06T13:41:52.402Z,78.86
2022-10-06T13:44:35.941Z,78.68
2022-10-06T13:47:08.900Z,78.71
2022-10-06T13:49:49.188Z,78.81
2022-10-06T13:52:22.050Z,78.51
2022-10-06T13:54:56.012Z,78.37
2022-10-06T13:57:39.902Z,78.45
2022-10-06T14:00:20.212Z,78.33
2022-10-06T14:02:51.926Z,78.28
2022-10-06T14:05:33.382Z,78.40
2022-10-06T14:08:04.936Z,78.29
2022-10-06T14:10:41.462Z,78.23
2022-10-06T14:13:17.019Z,78.19
2022-10-06T14:15:50.462Z,78.10
2022-10-06T14:18:27.100Z,78.01
2022-10-06T14:21:00.223Z,78.04
2022-10-06T14:23:46.234Z,78.09
2022-10-06T14:26:17.525Z,78.17
2022-10-06T14:28:52.988Z,78.18
2022-10-06T14:31:23.746Z,78.22
2022-10-06T14:33:55.031Z,78.26
2022-10-06T14:36:29.234Z,78.56
2022-10-06T14:39:00.483Z,78.64
2022-10-06T14:41:32.912Z,78.68
2022-10-06T14:44:06.171Z,78.60
2022-10-06T14:46:36.755Z,78.56
2022-10-06T14:49:08.522Z,78.67
2022-10-06T14:51:44.473Z,78.59
2022-10-06T14:54:14.486Z,78.78
2022-10-06T14:56:44.928Z,78.82
2022-10-06T14:59:17.337Z,78.81
2022-10-06T15:01:47.918Z,78.96
2022-10-06T15:04:19.814Z,78.95
2022-10-06T15:07:04.592Z,79.15
2022-10-06T15:09:35.890Z,79.14
2022-10-06T15:12:06.450Z,79.37
2022-10-06T15:14:39.820Z,79.64
2022-10-06T15:17:09.851Z,79.61
2022-10-06T15:19:40.470Z,79.83
2022-10-06T15:22:12.783Z,79.94
2022-10-06T15:24:43.342Z,80.05
2022-10-06T15:27:25.465Z,80.03
2022-10-06T15:29:56.220Z,80.09
2022-10-06T15:32:26.056Z,80.11
2022-10-06T15:34:55.779Z,80.23
2022-10-06T15:37:28.166Z,80.22
2022-10-06T15:39:58.149Z,80.35
2022-10-06T15:42:28.035Z,80.37
2022-10-06T15:44:57.842Z,80.26
2022-10-06T15:47:28.128Z,80.34
2022-10-06T15:49:57.947Z,80.36
2022-10-06T15:52:34.114Z,80.53
2022-10-06T15:55:03.878Z,80.58
2022-10-06T15:57:33.707Z,80.73
2022-10-06T16:00:03.481Z,80.63
2022-10-06T16:02:35.830Z,80.85
2022-10-06T16:05:45.089Z,80.72
2022-10-06T16:08:17.495Z,80.84
2022-10-06T16:10:52.507Z,80.83
2022-10-06T16:13:22.376Z,80.97
2022-10-06T16:15:55.858Z,81.15
2022-10-06T16:18:25.892Z,81.20
2022-10-06T16:20:56.721Z,81.39
2022-10-06T16:23:29.104Z,81.52
2022-10-06T16:26:03.871Z,81.64
2022-10-06T16:28:33.956Z,81.78
2022-10-06T16:31:03.865Z,81.81
2022-10-06T16:33:33.630Z,82.09
2022-10-06T16:36:03.389Z,82.11
2022-10-06T16:38:35.718Z,82.22
2022-10-06T16:41:05.682Z,82.24
2022-10-06T16:43:37.964Z,82.17
2022-10-06T16:46:09.985Z,82.46
2022-10-06T16:48:41.384Z,82.50
2022-10-06T16:51:13.184Z,82.71
2022-10-06T16:53:46.743Z,82.80
2022-10-06T16:56:20.504Z,82.87
2022-10-06T16:58:53.495Z,83.03
2022-10-06T17:01:25.667Z,83.06
2022-10-06T17:04:00.755Z,83.29
2022-10-06T17:06:30.580Z,83.36
2022-10-06T17:09:03.159Z,83.47
2022-10-06T17:11:33.002Z,83.57
2022-10-06T17:14:02.732Z,83.75
2022-10-06T17:16:35.088Z,83.92
2022-10-06T17:19:05.411Z,83.86
2022-10-06T17:21:57.378Z,84.03
2022-10-06T17:24:28.955Z,84.34
2022-10-06T17:27:00.518Z,84.37
2022-10-06T17:29:30.473Z,84.54
2022-10-06T17:32:01.635Z,84.64
2022-10-06T17:34:33.161Z,84.57
2022-10-06T17:37:04.704Z,84.88
2022-10-06T17:39:37.076Z,84.83
2022-10-06T17:42:07.361Z,85.00
2022-10-06T17:44:37.057Z,85.29
2022-10-06T17:47:07.196Z,85.24
2022-10-06T17:49:37.260Z,85.44
2022-10-06T17:52:07.520Z,85.60
2022-10-06T17:54:41.602Z,85.69
2022-10-06T17:57:11.358Z,85.96
2022-10-06T17:59:41.070Z,86.03
2022-10-06T18:02:13.622Z,86.07
2022-10-06T18:04:43.390Z,86.19
2022-10-06T18:07:13.166Z,86.32
2022-10-06T18:10:05.912Z,86.41
2022-10-06T18:12:36.350Z,86.62
2022-10-06T18:15:06.191Z,86.79
2022-10-06T18:17:36.101Z,86.78
2022-10-06T18:20:06.509Z,86.97
2022-10-06T18:22:36.245Z,87.09
2022-10-06T18:25:10.002Z,87.12
2022-10-06T18:27:40.455Z,87.32
2022-10-06T18:30:12.186Z,87.48
2022-10-06T18:34:41.658Z,87.53
2022-10-06T18:38:21.276Z,87.83
2022-10-06T18:41:00.654Z,88.02
2022-10-06T18:43:30.862Z,88.10
2022-10-06T18:46:17.111Z,88.21
2022-10-06T18:48:58.979Z,88.29
2022-10-06T18:51:32.573Z,88.43
2022-10-06T18:54:05.462Z,88.60
2022-10-06T18:56:39.335Z,88.77
2022-10-06T18:59:12.395Z,88.79
2022-10-06T19:01:44.686Z,88.99
2022-10-06T19:04:16.048Z,89.02
2022-10-06T19:06:49.392Z,89.21
2022-10-06T19:09:21.046Z,89.33
2022-10-06T19:11:56.694Z,89.47
2022-10-06T19:14:29.909Z,89.54
2022-10-06T19:17:02.277Z,89.60
2022-10-06T19:19:34.102Z,89.76
2022-10-06T19:22:06.197Z,89.72
2022-10-06T19:24:38.635Z,89.87
2022-10-06T19:27:15.234Z,89.89
2022-10-06T19:29:47.033Z,89.91
2022-10-06T19:32:19.313Z,90.09
2022-10-06T19:34:49.756Z,90.09
2022-10-06T19:37:19.619Z,90.13
2022-10-06T19:39:50.589Z,90.07
2022-10-06T19:42:35.860Z,90.23
2022-10-06T19:45:06.558Z,90.31
2022-10-06T19:47:36.341Z,90.39
2022-10-06T19:50:12.084Z,90.43
2022-10-06T19:52:42.152Z,90.59
2022-10-06T19:55:12.104Z,90.67
2022-10-06T19:57:44.797Z,90.70
2022-10-06T20:00:16.329Z,90.77
2022-10-06T20:02:47.638Z,90.73
2022-10-06T20:05:19.265Z,90.91
2022-10-06T20:07:50.104Z,91.03
2022-10-06T20:10:20.054Z,91.00
2022-10-06T20:12:52.669Z,91.12
2022-10-06T20:15:22.732Z,91.14
2022-10-06T20:17:52.416Z,91.31
2022-10-06T20:20:22.188Z,91.27
2022-10-06T20:22:54.045Z,91.35
2022-10-06T20:25:23.820Z,91.43
2022-10-06T20:27:56.237Z,91.43
2022-10-06T20:30:26.002Z,91.47
2022-10-06T20:32:55.785Z,91.65
2022-10-06T20:35:25.555Z,91.68
2022-10-06T20:37:55.289Z,91.71
2022-10-06T20:40:37.410Z,91.78
2022-10-06T20:43:09.812Z,91.87
2022-10-06T20:45:39.562Z,91.89
2022-10-06T20:48:09.840Z,92.00
2022-10-06T20:50:39.562Z,91.96
2022-10-06T20:53:09.769Z,91.96
2022-10-06T20:55:39.823Z,92.05
2022-10-06T20:58:12.212Z,92.10
2022-10-06T21:00:42.094Z,92.12
2022-10-06T21:03:12.000Z,92.19
2022-10-06T21:05:42.065Z,92.30
2022-10-06T21:08:12.115Z,92.24
2022-10-06T21:10:41.871Z,92.33
2022-10-06T21:13:14.466Z,92.34
2022-10-06T21:15:48.148Z,92.50
2022-10-06T21:18:18.025Z,92.47
2022-10-06T21:20:57.001Z,92.54
2022-10-06T21:23:26.886Z,92.48
2022-10-06T21:25:56.768Z,92.53
2022-10-06T21:28:29.228Z,92.56
2022-10-06T21:31:04.521Z,92.65
2022-10-06T21:33:41.546Z,92.59
2022-10-06T21:36:15.621Z,92.74
2022-10-06T21:38:47.943Z,92.69
2022-10-06T21:41:37.251Z,92.69
2022-10-06T21:44:11.207Z,92.87
2022-10-06T21:46:42.565Z,92.84
2022-10-06T21:49:14.189Z,92.83
2022-10-06T21:51:45.801Z,92.89
2022-10-06T21:54:16.554Z,92.91
2022-10-06T21:56:46.743Z,92.88
2022-10-06T21:59:19.207Z,92.94
2022-10-06T22:01:50.476Z,92.99
2022-10-06T22:04:20.669Z,93.00
2022-10-06T22:06:51.856Z,93.04
2022-10-06T22:09:23.591Z,93.22
2022-10-06T22:11:53.389Z,93.21
2022-10-06T22:14:25.796Z,93.21
2022-10-06T22:16:55.517Z,93.17
2022-10-06T22:19:25.313Z,93.30
2022-10-06T22:21:55.056Z,93.43
2022-10-06T22:24:24.911Z,93.47
2022-10-06T22:26:54.690Z,93.51
2022-10-06T22:29:27.154Z,93.49
2022-10-06T22:31:58.722Z,93.64
2022-10-06T22:34:29.908Z,93.65
2022-10-06T22:37:00.791Z,93.76
2022-10-06T22:39:30.538Z,93.76
2022-10-06T22:42:00.251Z,93.96
2022-10-06T22:44:32.624Z,93.91
2022-10-06T22:47:02.413Z,94.05
2022-10-06T22:49:32.317Z,94.12
2022-10-06T22:52:02.087Z,94.10
2022-10-06T22:54:32.454Z,94.23
2022-10-06T22:57:02.188Z,94.22
2022-10-06T22:59:34.518Z,94.36
2022-10-06T23:02:04.264Z,94.46
2022-10-06T23:04:34.064Z,94.49
2022-10-06T23:07:03.862Z,94.46
2022-10-06T23:09:33.653Z,94.56
2022-10-06T23:12:03.412Z,94.50
2022-10-06T23:14:35.736Z,94.69
2022-10-06T23:17:05.456Z,94.67
2022-10-06T23:19:35.199Z,94.75
2022-10-06T23:22:05.144Z,94.78
2022-10-06T23:24:34.889Z,94.84
2022-10-06T23:27:07.267Z,95.02
2022-10-06T23:29:39.615Z,95.03
2022-10-06T23:32:09.345Z,95.03
2022-10-06T23:34:39.110Z,95.18
2022-10-06T23:37:08.834Z,95.33
2022-10-06T23:39:38.649Z,95.39
2022-10-06T23:42:09.791Z,95.50
2022-10-06T23:44:42.735Z,95.57
2022-10-06T23:47:12.469Z,95.63
2022-10-06T23:49:43.716Z,95.67
2022-10-06T23:52:13.482Z,95.71
2022-10-06T23:54:43.287Z,95.74
2022-10-06T23:57:13.008Z,95.76
2022-10-06T23:59:45.343Z,95.94
